createdAt,value
2022-08-09T00:02:07.741Z,100.00
2022-08-09T00:04:36.580Z,100.00
2022-08-09T00:07:10.659Z,100.00
2022-08-09T00:09:40.170Z,100.00
2022-08-09T00:12:22.330Z,100.00
2022-08-09T00:14:56.841Z,100.00
2022-08-09T00:18:10.841Z,100.00
2022-08-09T00:20:15.204Z,100.00
2022-08-09T00:22:44.940Z,100.00
2022-08-09T00:25:23.168Z,100.00
2022-08-09T00:28:00.467Z,100.00
2022-08-09T00:30:33.730Z,100.00
2022-08-09T00:33:02.300Z,100.00
2022-08-09T00:35:43.675Z,100.00
2022-08-09T00:38:13.585Z,100.00
2022-08-09T00:40:52.781Z,100.00
2022-08-09T00:44:11.080Z,100.00
2022-08-09T00:46:55.983Z,100.00
2022-08-09T00:49:31.073Z,100.00
2022-08-09T00:52:05.018Z,100.00
2022-08-09T00:54:35.125Z,100.00
2022-08-09T00:57:08.761Z,100.00
2022-08-09T00:59:46.997Z,100.00
2022-08-09T01:02:24.575Z,100.00
2022-08-09T01:05:22.154Z,100.00
2022-08-09T01:08:30.190Z,100.00
2022-08-09T01:11:24.314Z,100.00
2022-08-09T01:14:36.905Z,100.00
2022-08-09T01:17:12.740Z,100.00
2022-08-09T01:20:03.366Z,100.00
2022-08-09T01:22:56.259Z,100.00
2022-08-09T01:26:02.588Z,100.00
2022-08-09T01:28:31.952Z,100.00
2022-08-09T01:31:03.877Z,100.00
2022-08-09T01:33:38.615Z,100.00
2022-08-09T01:36:14.068Z,100.00
2022-08-09T01:38:48.939Z,100.00
2022-08-09T01:41:25.843Z,100.00
2022-08-09T01:44:02.465Z,100.00
2022-08-09T01:46:38.518Z,100.00
2022-08-09T01:49:14.805Z,100.00
2022-08-09T01:51:53.049Z,100.00
2022-08-09T01:54:40.919Z,100.00
2022-08-09T01:57:14.765Z,100.00
2022-08-09T01:59:52.019Z,100.00
2022-08-09T02:02:31.105Z,100.00
2022-08-09T02:05:15.609Z,100.00
2022-08-09T02:08:40.610Z,100.00
2022-08-09T02:10:50.988Z,100.00
2022-08-09T02:13:25.947Z,100.00
2022-08-09T02:16:20.805Z,100.00
2022-08-09T02:19:04.545Z,100.00
2022-08-09T02:21:40.674Z,100.00
2022-08-09T02:24:12.918Z,100.00
2022-08-09T02:26:59.652Z,100.00
2022-08-09T02:29:34.749Z,100.00
2022-08-09T02:32:06.407Z,100.00
2022-08-09T02:34:41.670Z,100.00
2022-08-09T02:37:31.401Z,100.00
2022-08-09T02:40:11.570Z,100.00
2022-08-09T02:42:43.506Z,100.00
2022-08-09T02:45:15.185Z,100.00
2022-08-09T02:47:59.031Z,100.00
2022-08-09T02:50:55.749Z,100.00
2022-08-09T02:53:52.973Z,100.00
2022-08-09T02:56:31.958Z,100.00
2022-08-09T02:59:03.905Z,100.00
2022-08-09T03:01:43.043Z,100.00
2022-08-09T03:04:26.332Z,100.00
2022-08-09T03:07:12.240Z,100.00
2022-08-09T03:09:54.467Z,100.00
2022-08-09T03:12:26.544Z,100.00
2022-08-09T03:14:56.865Z,100.00
2022-08-09T03:17:26.616Z,100.00
2022-08-09T03:20:02.938Z,100.00
2022-08-09T03:22:42.092Z,100.00
2022-08-09T03:25:21.529Z,100.00
2022-08-09T03:28:03.129Z,100.00
2022-08-09T03:30:34.465Z,100.00
2022-08-09T03:33:17.326Z,100.00
2022-08-09T03:36:16.427Z,100.00
2022-08-09T03:38:43.556Z,100.00
2022-08-09T03:41:16.650Z,100.00
2022-08-09T03:44:02.906Z,100.00
2022-08-09T03:46:37.050Z,100.00
2022-08-09T03:49:08.979Z,100.00
2022-08-09T03:51:56.251Z,100.00
2022-08-09T03:54:38.650Z,100.00
2022-08-09T03:57:18.667Z,100.00
2022-08-09T03:59:53.715Z,100.00
2022-08-09T04:02:33.711Z,100.00
2022-08-09T04:05:06.713Z,100.00
2022-08-09T04:07:52.460Z,100.00
2022-08-09T04:10:28.715Z,100.00
2022-08-09T04:13:04.542Z,100.00
2022-08-09T04:16:17.446Z,100.00
2022-08-09T04:18:28.807Z,100.00
2022-08-09T04:24:01.891Z,100.00
2022-08-09T04:26:37.991Z,100.00
2022-08-09T04:29:12.156Z,100.00
2022-08-09T04:31:46.782Z,100.00
2022-08-09T04:34:30.789Z,100.00
2022-08-09T04:37:02.372Z,100.00
2022-08-09T04:42:15.763Z,100.00
2022-08-09T04:44:50.961Z,100.00
2022-08-09T04:47:28.382Z,100.00
2022-08-09T04:50:14.268Z,100.00
2022-08-09T04:52:52.780Z,100.00
2022-08-09T04:55:22.090Z,100.00
2022-08-09T04:57:58.445Z,100.00
2022-08-09T05:00:34.213Z,100.00
2022-08-09T05:03:12.720Z,100.00
2022-08-09T05:06:06.424Z,100.00
2022-08-09T05:08:36.443Z,100.00
2022-08-09T05:11:06.662Z,100.00
2022-08-09T05:13:38.802Z,100.00
2022-08-09T05:16:10.828Z,100.00
2022-08-09T05:18:57.710Z,100.00
2022-08-09T05:21:46.436Z,100.00
2022-08-09T05:24:15.996Z,100.00
2022-08-09T05:26:46.246Z,100.00
2022-08-09T05:29:21.192Z,100.00
2022-08-09T05:31:57.327Z,100.00
2022-08-09T05:34:30.736Z,100.00
2022-08-09T05:37:06.575Z,100.00
2022-08-09T05:39:43.480Z,100.00
2022-08-09T05:42:20.554Z,100.00
2022-08-09T05:44:54.627Z,100.00
2022-08-09T05:47:24.353Z,100.00
2022-08-09T05:50:25.039Z,100.00
2022-08-09T05:52:52.097Z,100.00
2022-08-09T05:55:23.944Z,100.00
2022-08-09T05:57:58.313Z,100.00
2022-08-09T06:00:37.694Z,100.00
2022-08-09T06:03:10.816Z,100.00
2022-08-09T06:05:56.891Z,100.00
2022-08-09T06:08:40.734Z,100.00
2022-08-09T06:11:17.919Z,100.00
2022-08-09T06:13:47.468Z,100.00
2022-08-09T06:16:19.907Z,100.00
2022-08-09T06:18:52.272Z,100.00
2022-08-09T06:21:23.863Z,100.00
2022-08-09T06:24:01.238Z,100.00
2022-08-09T06:26:38.113Z,100.00
2022-08-09T06:29:21.418Z,100.00
2022-08-09T06:32:24.634Z,100.00
2022-08-09T06:34:53.245Z,100.00
2022-08-09T06:37:22.202Z,100.00
2022-08-09T06:40:00.607Z,100.00
2022-08-09T06:42:34.746Z,100.00
2022-08-09T06:46:04.775Z,100.00
2022-08-09T06:48:17.255Z,100.00
2022-08-09T06:51:04.417Z,100.00
2022-08-09T06:53:38.485Z,100.00
2022-08-09T06:56:12.856Z,100.00
2022-08-09T07:00:57.181Z,99.92
2022-08-09T07:04:22.769Z,100.00
2022-08-09T07:06:53.485Z,98.70
2022-08-09T07:09:55.662Z,99.18
2022-08-09T07:12:20.185Z,98.18
2022-08-09T07:14:54.900Z,95.91
2022-08-09T07:17:23.270Z,96.07
2022-08-09T07:19:55.262Z,94.33
2022-08-09T07:22:27.295Z,94.84
2022-08-09T07:25:05.158Z,95.05
2022-08-09T07:27:43.094Z,94.69
2022-08-09T07:30:24.370Z,93.40
2022-08-09T07:32:53.671Z,91.53
2022-08-09T07:35:23.507Z,92.24
2022-08-09T07:37:59.199Z,91.37
2022-08-09T07:40:37.217Z,90.94
2022-08-09T07:43:17.232Z,88.77
2022-08-09T07:45:45.876Z,88.65
2022-08-09T07:48:28.604Z,88.93
2022-08-09T07:51:10.215Z,84.90
2022-08-09T07:54:07.473Z,84.19
2022-08-09T07:56:45.157Z,81.79
2022-08-09T07:59:25.116Z,82.07
2022-08-09T08:01:56.136Z,81.25
2022-08-09T08:04:31.391Z,80.66
2022-08-09T08:07:14.896Z,79.33
2022-08-09T08:09:59.755Z,79.01
2022-08-09T08:12:43.409Z,77.88
2022-08-09T08:15:17.314Z,77.24
2022-08-09T08:17:53.234Z,77.91
2022-08-09T08:20:32.389Z,71.90
2022-08-09T08:23:16.008Z,71.93
2022-08-09T08:25:50.154Z,69.88
2022-08-09T08:28:35.096Z,70.46
2022-08-09T08:31:14.384Z,70.48
2022-08-09T08:33:52.849Z,70.20
2022-08-09T08:36:34.759Z,68.86
2022-08-09T08:39:10.372Z,69.55
2022-08-09T08:41:50.364Z,69.45
2022-08-09T08:44:27.384Z,70.21
2022-08-09T08:47:04.980Z,70.68
2022-08-09T08:49:48.025Z,69.57
2022-08-09T08:52:52.698Z,69.30
2022-08-09T08:55:11.462Z,67.34
2022-08-09T08:57:44.141Z,67.30
2022-08-09T09:00:34.500Z,68.76
2022-08-09T09:03:11.068Z,66.31
2022-08-09T09:05:59.763Z,66.96
2022-08-09T09:08:40.720Z,65.30
2022-08-09T09:11:13.645Z,63.15
2022-08-09T09:13:56.506Z,63.46
2022-08-09T09:16:31.837Z,63.24
2022-08-09T09:22:26.914Z,63.91
2022-08-09T09:26:02.525Z,61.61
2022-08-09T09:28:06.776Z,62.44
2022-08-09T09:30:54.617Z,61.63
2022-08-09T09:33:44.799Z,60.15
2022-08-09T09:36:20.290Z,61.54
2022-08-09T09:38:57.135Z,60.83
2022-08-09T09:41:32.986Z,61.13
2022-08-09T09:44:11.890Z,61.37
2022-08-09T09:46:50.378Z,62.39
2022-08-09T09:49:31.652Z,62.73
2022-08-09T09:52:33.519Z,62.23
2022-08-09T09:55:23.976Z,62.36
2022-08-09T09:58:15.939Z,61.02
2022-08-09T10:00:58.429Z,61.68
2022-08-09T10:03:43.611Z,61.69
2022-08-09T10:06:19.577Z,62.32
2022-08-09T10:08:57.322Z,60.63
2022-08-09T10:11:59.624Z,60.00
2022-08-09T10:14:30.963Z,60.22
2022-08-09T10:17:38.814Z,59.50
2022-08-09T10:23:21.135Z,58.34
2022-08-09T10:26:07.217Z,58.70
2022-08-09T10:28:44.107Z,58.94
2022-08-09T10:34:32.200Z,57.94
2022-08-09T10:37:00.498Z,56.74
2022-08-09T10:39:40.947Z,56.92
2022-08-09T10:45:31.927Z,55.32
2022-08-09T10:48:29.258Z,54.43
2022-08-09T10:51:47.303Z,54.89
2022-08-09T10:54:26.963Z,54.44
2022-08-09T10:57:16.836Z,53.57
2022-08-09T10:59:58.058Z,53.76
2022-08-09T11:03:11.409Z,54.31
2022-08-09T11:05:30.223Z,54.02
2022-08-09T11:08:47.757Z,54.84
2022-08-09T11:11:20.365Z,55.16
2022-08-09T11:14:28.368Z,54.33
2022-08-09T11:16:57.417Z,56.51
2022-08-09T11:20:20.528Z,56.46
2022-08-09T11:22:56.768Z,56.59
2022-08-09T11:25:44.904Z,58.03
2022-08-09T11:28:33.993Z,58.98
2022-08-09T11:31:33.766Z,58.15
2022-08-09T11:34:12.751Z,58.75
2022-08-09T11:36:48.865Z,58.89
2022-08-09T11:39:17.224Z,59.64
2022-08-09T11:41:46.099Z,59.80
2022-08-09T11:44:48.641Z,59.98
2022-08-09T11:47:16.987Z,59.50
2022-08-09T11:50:53.826Z,60.06
2022-08-09T11:54:00.532Z,60.34
2022-08-09T11:56:02.321Z,60.26
2022-08-09T11:58:33.707Z,60.32
2022-08-09T12:01:15.493Z,60.43
2022-08-09T12:04:20.567Z,61.00
2022-08-09T12:09:50.494Z,60.21
2022-08-09T12:12:28.679Z,60.32
2022-08-09T12:15:08.186Z,60.01
2022-08-09T12:17:44.365Z,59.33
2022-08-09T12:20:25.950Z,58.73
2022-08-09T12:23:00.260Z,57.49
2022-08-09T12:25:37.649Z,56.97
2022-08-09T12:31:31.161Z,56.49
2022-08-09T12:34:07.747Z,54.85
2022-08-09T12:37:09.522Z,54.63
2022-08-09T12:40:05.646Z,53.36
2022-08-09T12:42:35.291Z,52.70
2022-08-09T12:45:32.270Z,52.64
2022-08-09T12:47:54.428Z,51.72
2022-08-09T12:50:24.841Z,52.48
2022-08-09T12:53:08.472Z,53.05
2022-08-09T12:56:15.383Z,52.30
2022-08-09T12:58:28.593Z,52.04
2022-08-09T13:00:57.614Z,51.25
2022-08-09T13:03:57.223Z,50.34
2022-08-09T13:06:46.336Z,50.53
2022-08-09T13:09:38.182Z,51.18
2022-08-09T13:12:09.097Z,52.26
2022-08-09T13:14:45.359Z,53.49
2022-08-09T13:17:44.024Z,54.04
2022-08-09T13:20:16.295Z,55.89
2022-08-09T13:23:05.881Z,54.95
2022-08-09T13:25:53.318Z,55.59
2022-08-09T13:28:35.936Z,56.14
2022-08-09T13:32:16.713Z,56.56
2022-08-09T13:34:00.063Z,57.06
2022-08-09T13:36:41.414Z,58.15
2022-08-09T13:39:30.980Z,58.64
2022-08-09T13:42:12.766Z,59.56
2022-08-09T13:44:43.303Z,60.86
2022-08-09T13:47:33.676Z,61.84
2022-08-09T13:50:18.263Z,60.57
2022-08-09T13:52:59.506Z,61.32
2022-08-09T13:55:30.375Z,59.83
2022-08-09T13:57:59.513Z,58.40
2022-08-09T14:00:30.366Z,57.66
2022-08-09T14:03:04.411Z,57.68
2022-08-09T14:05:58.910Z,59.51
2022-08-09T14:08:31.757Z,58.18
2022-08-09T14:11:01.263Z,58.05
2022-08-09T14:14:22.624Z,58.80
2022-08-09T14:16:29.061Z,57.83
2022-08-09T14:19:03.272Z,58.16
2022-08-09T14:21:32.027Z,58.47
2022-08-09T14:24:10.195Z,56.19
2022-08-09T14:26:41.501Z,52.52
2022-08-09T14:30:04.453Z,49.89
2022-08-09T14:32:19.634Z,48.74
2022-08-09T14:35:53.563Z,48.05
2022-08-09T14:38:22.956Z,49.51
2022-08-09T14:41:01.155Z,48.82
2022-08-09T14:43:47.396Z,49.08
2022-08-09T14:47:00.904Z,49.73
2022-08-09T14:49:10.594Z,50.20
2022-08-09T14:51:42.324Z,51.25
2022-08-09T14:54:14.935Z,52.86
2022-08-09T14:56:58.178Z,54.19
2022-08-09T14:59:28.647Z,56.29
2022-08-09T15:01:57.049Z,58.38
2022-08-09T15:04:36.176Z,60.07
2022-08-09T15:07:04.972Z,61.25
2022-08-09T15:10:07.742Z,62.05
2022-08-09T15:12:27.639Z,63.46
2022-08-09T15:14:56.475Z,66.94
2022-08-09T15:17:25.431Z,68.03
2022-08-09T15:20:02.212Z,69.86
2022-08-09T15:22:31.202Z,76.09
2022-08-09T15:25:03.875Z,78.22
2022-08-09T15:27:47.913Z,80.84
2022-08-09T15:30:55.336Z,87.13
2022-08-09T15:33:09.993Z,91.06
2022-08-09T15:36:01.627Z,95.94
2022-08-09T15:38:30.938Z,97.88
2022-08-09T15:40:59.104Z,98.88
2022-08-09T15:43:37.078Z,99.48
2022-08-09T15:46:33.545Z,98.03
2022-08-09T15:49:07.912Z,98.21
2022-08-09T15:52:02.728Z,98.44
2022-08-09T15:54:48.911Z,100.00
2022-08-09T15:57:34.451Z,100.00
2022-08-09T16:00:26.837Z,99.98
2022-08-09T16:02:56.946Z,99.79
2022-08-09T16:05:47.438Z,99.22
2022-08-09T16:08:29.906Z,100.00
2022-08-09T16:14:03.857Z,98.68
2022-08-09T16:16:48.308Z,98.19
2022-08-09T16:19:49.643Z,98.43
2022-08-09T16:22:32.656Z,99.92
2022-08-09T16:25:03.583Z,99.72
2022-08-09T16:27:38.175Z,98.50
2022-08-09T16:30:15.106Z,99.13
2022-08-09T16:33:09.466Z,100.00
2022-08-09T16:35:56.926Z,100.00
2022-08-09T16:38:28.179Z,100.00
2022-08-09T16:40:58.141Z,100.00
2022-08-09T16:43:27.510Z,100.00
2022-08-09T16:46:04.370Z,100.00
2022-08-09T16:48:42.960Z,100.00
2022-08-09T16:51:22.013Z,100.00
2022-08-09T16:54:26.312Z,100.00
2022-08-09T16:56:48.972Z,100.00
2022-08-09T16:59:26.798Z,100.00
2022-08-09T17:02:03.402Z,100.00
2022-08-09T17:04:34.451Z,100.00
2022-08-09T17:08:46.676Z,100.00
2022-08-09T17:09:53.243Z,100.00
2022-08-09T17:12:30.815Z,100.00
2022-08-09T17:15:00.187Z,100.00
2022-08-09T17:17:30.729Z,100.00
2022-08-09T17:20:36.066Z,100.00
2022-08-09T17:23:06.267Z,100.00
2022-08-09T17:25:39.536Z,100.00
2022-08-09T17:28:14.767Z,100.00
2022-08-09T17:30:47.639Z,100.00
2022-08-09T17:33:22.430Z,100.00
2022-08-09T17:36:15.666Z,100.00
2022-08-09T17:38:57.873Z,100.00
2022-08-09T17:41:38.852Z,100.00
2022-08-09T17:44:42.027Z,100.00
2022-08-09T17:47:00.192Z,100.00
2022-08-09T17:49:28.513Z,100.00
2022-08-09T17:51:59.809Z,100.00
2022-08-09T17:54:29.827Z,100.00
2022-08-09T17:57:00.106Z,100.00
2022-08-09T17:59:38.508Z,100.00
2022-08-09T18:02:18.863Z,100.00
2022-08-09T18:04:54.147Z,100.00
2022-08-09T18:13:43.241Z,100.00
2022-08-09T18:18:43.167Z,100.00
2022-08-09T18:21:23.420Z,100.00
2022-08-09T18:26:37.858Z,100.00
2022-08-09T18:30:42.419Z,100.00
2022-08-09T18:31:58.304Z,100.00
2022-08-09T18:34:41.142Z,100.00
2022-08-09T18:37:10.124Z,100.00
2022-08-09T18:40:07.454Z,100.00
2022-08-09T18:43:04.185Z,100.00
2022-08-09T18:46:46.219Z,100.00
2022-08-09T18:48:30.383Z,100.00
2022-08-09T18:51:02.708Z,100.00
2022-08-09T18:53:56.612Z,100.00
2022-08-09T18:56:27.965Z,100.00
2022-08-09T18:59:09.368Z,100.00
2022-08-09T19:01:43.586Z,100.00
2022-08-09T19:04:15.207Z,100.00
2022-08-09T19:06:50.535Z,100.00
2022-08-09T19:09:20.557Z,100.00
2022-08-09T19:12:41.893Z,100.00
2022-08-09T19:15:22.667Z,100.00
2022-08-09T19:17:55.013Z,100.00
2022-08-09T19:20:40.197Z,100.00
2022-08-09T19:24:31.854Z,100.00
2022-08-09T19:26:15.699Z,100.00
2022-08-09T19:29:15.216Z,100.00
2022-08-09T19:31:49.525Z,100.00
2022-08-09T19:34:22.860Z,100.00
2022-08-09T19:37:16.867Z,100.00
2022-08-09T19:40:04.104Z,100.00
2022-08-09T19:42:34.843Z,100.00
2022-08-09T19:45:18.692Z,100.00
2022-08-09T19:48:04.278Z,100.00
2022-08-09T19:50:50.798Z,100.00
2022-08-09T19:53:26.450Z,100.00
2022-08-09T19:56:06.770Z,100.00
2022-08-09T19:58:39.434Z,100.00
2022-08-09T20:01:08.450Z,100.00
2022-08-09T20:04:18.201Z,100.00
2022-08-09T20:06:46.304Z,100.00
2022-08-09T20:09:45.264Z,100.00
2022-08-09T20:12:37.418Z,100.00
2022-08-09T20:16:31.812Z,100.00
2022-08-09T20:17:59.874Z,100.00
2022-08-09T20:20:37.895Z,100.00
2022-08-09T20:23:06.869Z,100.00
2022-08-09T20:25:38.143Z,100.00
2022-08-09T20:31:09.144Z,100.00
2022-08-09T20:33:41.094Z,100.00
2022-08-09T20:36:13.969Z,100.00
2022-08-09T20:39:17.225Z,100.00
2022-08-09T20:41:37.683Z,100.00
2022-08-09T20:44:09.989Z,100.00
2022-08-09T20:46:51.188Z,100.00
2022-08-09T20:49:19.893Z,100.00
2022-08-09T20:51:50.661Z,100.00
2022-08-09T20:54:20.027Z,100.00
2022-08-09T20:56:49.780Z,100.00
2022-08-09T20:59:50.225Z,100.00
2022-08-09T21:02:17.622Z,100.00
2022-08-09T21:05:52.071Z,100.00
2022-08-09T21:07:40.328Z,100.00
2022-08-09T21:10:13.376Z,100.00
2022-08-09T21:15:33.940Z,100.00
2022-08-09T21:18:20.930Z,100.00
2022-08-09T21:20:54.344Z,100.00
2022-08-09T21:23:47.471Z,100.00
2022-08-09T21:26:15.601Z,100.00
2022-08-09T21:28:55.345Z,100.00
2022-08-09T21:31:48.506Z,100.00
2022-08-09T21:34:28.532Z,100.00
2022-08-09T21:36:57.934Z,100.00
2022-08-09T21:39:41.845Z,100.00
2022-08-09T21:42:11.729Z,100.00
2022-08-09T21:44:42.831Z,100.00
2022-08-09T21:47:18.276Z,100.00
2022-08-09T21:50:01.125Z,100.00
2022-08-09T21:52:37.608Z,100.00
2022-08-09T21:55:09.682Z,100.00
2022-08-09T21:57:59.039Z,100.00
2022-08-09T22:00:34.951Z,100.00
2022-08-09T22:03:06.874Z,100.00
2022-08-09T22:05:41.873Z,100.00
2022-08-09T22:08:14.898Z,100.00
2022-08-09T22:11:04.785Z,100.00
2022-08-09T22:13:37.489Z,100.00
2022-08-09T22:16:09.483Z,100.00
2022-08-09T22:18:53.263Z,100.00
2022-08-09T22:21:44.629Z,100.00
2022-08-09T22:27:05.523Z,100.00
2022-08-09T22:32:30.110Z,100.00
2022-08-09T22:35:02.673Z,100.00
2022-08-09T22:37:40.566Z,100.00
2022-08-09T22:40:19.990Z,100.00
2022-08-09T22:43:01.287Z,100.00
2022-08-09T22:48:12.673Z,100.00
2022-08-09T22:48:36.833Z,100.00
2022-08-09T22:51:10.783Z,100.00
2022-08-09T22:54:02.146Z,100.00
2022-08-09T22:56:38.144Z,100.00
2022-08-09T22:59:55.954Z,100.00
2022-08-09T23:02:07.510Z,100.00
2022-08-09T23:04:38.416Z,100.00
2022-08-09T23:08:21.343Z,100.00
2022-08-09T23:10:19.553Z,100.00
2022-08-09T23:12:48.067Z,100.00
2022-08-09T23:15:17.214Z,100.00
2022-08-09T23:17:53.401Z,100.00
2022-08-09T23:20:23.577Z,100.00
2022-08-09T23:22:52.532Z,100.00
2022-08-09T23:25:26.542Z,100.00
2022-08-09T23:28:15.279Z,100.00
2022-08-09T23:30:51.194Z,100.00
2022-08-09T23:33:22.682Z,100.00
2022-08-09T23:36:05.635Z,100.00
2022-08-09T23:38:49.234Z,100.00
2022-08-09T23:41:28.898Z,100.00
2022-08-09T23:44:01.846Z,100.00
2022-08-09T23:46:35.128Z,100.00
2022-08-09T23:49:07.318Z,100.00
2022-08-09T23:51:44.124Z,100.00
2022-08-09T23:54:14.399Z,100.00
2022-08-09T23:56:53.976Z,100.00
2022-08-09T23:59:29.546Z,100.00
